sensor_id;sensor_type;location;lat;lon;timestamp;temperature;humidity
45849;DHT22;31567;54.600;9.842;2023-08-30T00:03:26;14.00;99.90
45849;DHT22;31567;54.600;9.842;2023-08-30T00:07:05;14.10;99.90
45849;DHT22;31567;54.600;9.842;2023-08-30T00:10:45;14.10;99.90
45849;DHT22;31567;54.600;9.842;2023-08-30T00:14:25;14.00;99.90
45849;DHT22;31567;54.600;9.842;2023-08-30T00:18:05;13.90;99.90
45849;DHT22;31567;54.600;9.842;2023-08-30T00:21:45;13.90;99.90
45849;DHT22;31567;54.600;9.842;2023-08-30T00:25:24;13.80;99.90
45849;DHT22;31567;54.600;9.842;2023-08-30T00:29:04;13.80;99.90
45849;DHT22;31567;54.600;9.842;2023-08-30T00:32:43;13.80;99.90
45849;DHT22;31567;54.600;9.842;2023-08-30T00:36:24;13.70;99.90
45849;DHT22;31567;54.600;9.842;2023-08-30T00:40:04;13.70;99.90
45849;DHT22;31567;54.600;9.842;2023-08-30T00:43:43;13.80;99.90
45849;DHT22;31567;54.600;9.842;2023-08-30T00:47:23;13.80;99.90
45849;DHT22;31567;54.600;9.842;2023-08-30T00:51:03;13.70;99.90
45849;DHT22;31567;54.600;9.842;2023-08-30T00:54:42;13.70;99.90
45849;DHT22;31567;54.600;9.842;2023-08-30T00:58:22;13.80;99.90
45849;DHT22;31567;54.600;9.842;2023-08-30T01:02:02;13.90;99.90
45849;DHT22;31567;54.600;9.842;2023-08-30T01:05:41;13.90;99.90
45849;DHT22;31567;54.600;9.842;2023-08-30T01:09:21;13.90;99.90
45849;DHT22;31567;54.600;9.842;2023-08-30T01:13:08;13.80;99.90
45849;DHT22;31567;54.600;9.842;2023-08-30T01:16:48;13.80;99.90
45849;DHT22;31567;54.600;9.842;2023-08-30T01:20:28;13.70;99.90
45849;DHT22;31567;54.600;9.842;2023-08-30T01:24:11;13.70;99.90
45849;DHT22;31567;54.600;9.842;2023-08-30T01:27:54;13.70;99.90
45849;DHT22;31567;54.600;9.842;2023-08-30T01:31:34;13.60;99.90
45849;DHT22;31567;54.600;9.842;2023-08-30T01:35:14;13.70;99.90
45849;DHT22;31567;54.600;9.842;2023-08-30T01:38:58;13.70;99.90
45849;DHT22;31567;54.600;9.842;2023-08-30T01:42:39;13.70;99.90
45849;DHT22;31567;54.600;9.842;2023-08-30T01:46:20;13.70;99.90
45849;DHT22;31567;54.600;9.842;2023-08-30T01:50:01;13.70;99.90
45849;DHT22;31567;54.600;9.842;2023-08-30T01:53:42;13.70;99.90
45849;DHT22;31567;54.600;9.842;2023-08-30T01:57:22;13.70;99.90
45849;DHT22;31567;54.600;9.842;2023-08-30T02:01:02;13.70;99.90
45849;DHT22;31567;54.600;9.842;2023-08-30T02:04:41;13.80;99.90
45849;DHT22;31567;54.600;9.842;2023-08-30T02:08:22;13.80;99.90
45849;DHT22;31567;54.600;9.842;2023-08-30T02:12:13;13.90;99.90
45849;DHT22;31567;54.600;9.842;2023-08-30T02:15:55;14.00;99.90
45849;DHT22;31567;54.600;9.842;2023-08-30T02:19:36;14.10;99.90
45849;DHT22;31567;54.600;9.842;2023-08-30T02:23:15;14.30;99.90
45849;DHT22;31567;54.600;9.842;2023-08-30T02:26:55;14.50;99.90
45849;DHT22;31567;54.600;9.842;2023-08-30T02:30:34;14.60;99.90
45849;DHT22;31567;54.600;9.842;2023-08-30T02:34:14;14.70;99.90
45849;DHT22;31567;54.600;9.842;2023-08-30T02:37:53;14.70;99.90
45849;DHT22;31567;54.600;9.842;2023-08-30T02:41:33;14.70;99.90
45849;DHT22;31567;54.600;9.842;2023-08-30T02:45:13;14.80;99.90
45849;DHT22;31567;54.600;9.842;2023-08-30T02:48:53;14.90;99.90
45849;DHT22;31567;54.600;9.842;2023-08-30T02:52:32;14.90;99.90
45849;DHT22;31567;54.600;9.842;2023-08-30T02:56:12;15.00;99.90
45849;DHT22;31567;54.600;9.842;2023-08-30T02:59:51;15.10;99.90
45849;DHT22;31567;54.600;9.842;2023-08-30T03:03:31;15.20;99.90
45849;DHT22;31567;54.600;9.842;2023-08-30T03:07:11;15.20;99.90
45849;DHT22;31567;54.600;9.842;2023-08-30T03:10:50;15.30;99.90
45849;DHT22;31567;54.600;9.842;2023-08-30T03:14:30;15.40;99.90
45849;DHT22;31567;54.600;9.842;2023-08-30T03:18:09;15.40;99.90
45849;DHT22;31567;54.600;9.842;2023-08-30T03:21:49;15.40;99.90
45849;DHT22;31567;54.600;9.842;2023-08-30T03:25:29;15.40;99.90
45849;DHT22;31567;54.600;9.842;2023-08-30T03:29:09;15.50;99.90
45849;DHT22;31567;54.600;9.842;2023-08-30T03:32:49;15.60;99.90
45849;DHT22;31567;54.600;9.842;2023-08-30T03:36:28;15.60;99.90
45849;DHT22;31567;54.600;9.842;2023-08-30T03:40:08;15.60;99.90
45849;DHT22;31567;54.600;9.842;2023-08-30T03:43:48;15.60;99.90
45849;DHT22;31567;54.600;9.842;2023-08-30T03:47:28;15.70;99.90
45849;DHT22;31567;54.600;9.842;2023-08-30T03:51:08;15.70;99.90
45849;DHT22;31567;54.600;9.842;2023-08-30T03:54:47;15.80;99.90
45849;DHT22;31567;54.600;9.842;2023-08-30T03:58:27;15.80;99.90
45849;DHT22;31567;54.600;9.842;2023-08-30T04:02:06;15.80;99.90
45849;DHT22;31567;54.600;9.842;2023-08-30T04:05:46;15.80;99.90
45849;DHT22;31567;54.600;9.842;2023-08-30T04:09:25;15.80;99.90
45849;DHT22;31567;54.600;9.842;2023-08-30T04:13:06;15.80;99.90
45849;DHT22;31567;54.600;9.842;2023-08-30T04:16:45;15.90;99.90
45849;DHT22;31567;54.600;9.842;2023-08-30T04:20:25;15.90;99.90
45849;DHT22;31567;54.600;9.842;2023-08-30T04:24:05;15.90;99.90
45849;DHT22;31567;54.600;9.842;2023-08-30T04:27:44;15.90;99.90
45849;DHT22;31567;54.600;9.842;2023-08-30T04:31:24;15.90;99.90
45849;DHT22;31567;54.600;9.842;2023-08-30T04:35:04;15.90;99.90
45849;DHT22;31567;54.600;9.842;2023-08-30T04:38:43;15.90;99.90
45849;DHT22;31567;54.600;9.842;2023-08-30T04:42:23;16.00;99.90
45849;DHT22;31567;54.600;9.842;2023-08-30T04:46:02;16.00;99.90
45849;DHT22;31567;54.600;9.842;2023-08-30T04:49:42;16.10;99.90
45849;DHT22;31567;54.600;9.842;2023-08-30T04:53:22;16.10;99.90
45849;DHT22;31567;54.600;9.842;2023-08-30T04:57:01;16.10;99.90
45849;DHT22;31567;54.600;9.842;2023-08-30T05:00:41;16.30;99.90
45849;DHT22;31567;54.600;9.842;2023-08-30T05:04:21;16.20;99.90
45849;DHT22;31567;54.600;9.842;2023-08-30T05:08:00;16.20;99.90
45849;DHT22;31567;54.600;9.842;2023-08-30T05:11:40;16.30;99.90
45849;DHT22;31567;54.600;9.842;2023-08-30T05:15:19;16.30;99.90
45849;DHT22;31567;54.600;9.842;2023-08-30T05:18:59;16.40;99.90
45849;DHT22;31567;54.600;9.842;2023-08-30T05:22:39;16.50;99.90
45849;DHT22;31567;54.600;9.842;2023-08-30T05:26:18;16.50;99.90
45849;DHT22;31567;54.600;9.842;2023-08-30T05:29:58;16.60;99.90
45849;DHT22;31567;54.600;9.842;2023-08-30T05:33:38;16.60;99.90
45849;DHT22;31567;54.600;9.842;2023-08-30T05:37:17;16.70;99.90
45849;DHT22;31567;54.600;9.842;2023-08-30T05:40:57;16.70;99.90
45849;DHT22;31567;54.600;9.842;2023-08-30T05:44:37;16.80;99.90
45849;DHT22;31567;54.600;9.842;2023-08-30T05:48:16;16.80;99.90
45849;DHT22;31567;54.600;9.842;2023-08-30T05:51:56;16.90;99.90
45849;DHT22;31567;54.600;9.842;2023-08-30T05:55:35;16.90;99.90
45849;DHT22;31567;54.600;9.842;2023-08-30T05:59:15;16.90;99.90
45849;DHT22;31567;54.600;9.842;2023-08-30T06:02:55;17.00;99.90
45849;DHT22;31567;54.600;9.842;2023-08-30T06:06:34;17.10;99.90
45849;DHT22;31567;54.600;9.842;2023-08-30T06:10:14;17.10;99.90
45849;DHT22;31567;54.600;9.842;2023-08-30T06:13:53;17.20;99.90
45849;DHT22;31567;54.600;9.842;2023-08-30T06:17:34;17.30;99.90
45849;DHT22;31567;54.600;9.842;2023-08-30T06:21:13;17.40;99.90
45849;DHT22;31567;54.600;9.842;2023-08-30T06:24:53;17.50;99.90
45849;DHT22;31567;54.600;9.842;2023-08-30T06:28:32;17.60;99.90
45849;DHT22;31567;54.600;9.842;2023-08-30T06:32:12;17.60;99.90
45849;DHT22;31567;54.600;9.842;2023-08-30T06:35:51;17.80;99.90
45849;DHT22;31567;54.600;9.842;2023-08-30T06:39:33;17.70;99.90
45849;DHT22;31567;54.600;9.842;2023-08-30T06:43:14;17.80;99.90
45849;DHT22;31567;54.600;9.842;2023-08-30T06:46:53;17.90;99.90
45849;DHT22;31567;54.600;9.842;2023-08-30T06:50:34;18.00;99.90
45849;DHT22;31567;54.600;9.842;2023-08-30T06:54:13;18.10;99.90
45849;DHT22;31567;54.600;9.842;2023-08-30T06:57:54;18.20;99.90
45849;DHT22;31567;54.600;9.842;2023-08-30T07:01:34;18.30;99.90
45849;DHT22;31567;54.600;9.842;2023-08-30T07:05:13;18.40;99.90
45849;DHT22;31567;54.600;9.842;2023-08-30T07:08:53;18.50;99.90
45849;DHT22;31567;54.600;9.842;2023-08-30T07:12:32;18.50;99.90
45849;DHT22;31567;54.600;9.842;2023-08-30T07:16:12;18.60;99.80
45849;DHT22;31567;54.600;9.842;2023-08-30T07:19:51;18.60;99.40
45849;DHT22;31567;54.600;9.842;2023-08-30T07:23:31;18.70;99.30
45849;DHT22;31567;54.600;9.842;2023-08-30T07:27:11;18.80;99.20
45849;DHT22;31567;54.600;9.842;2023-08-30T07:31:02;18.90;99.00
45849;DHT22;31567;54.600;9.842;2023-08-30T07:34:42;18.90;98.80
45849;DHT22;31567;54.600;9.842;2023-08-30T07:38:21;18.90;98.50
45849;DHT22;31567;54.600;9.842;2023-08-30T07:42:01;19.10;98.50
45849;DHT22;31567;54.600;9.842;2023-08-30T07:45:40;19.10;98.20
45849;DHT22;31567;54.600;9.842;2023-08-30T07:49:20;19.10;97.90
45849;DHT22;31567;54.600;9.842;2023-08-30T07:53:00;19.10;97.80
45849;DHT22;31567;54.600;9.842;2023-08-30T07:56:39;19.20;97.80
45849;DHT22;31567;54.600;9.842;2023-08-30T08:00:19;19.30;97.60
45849;DHT22;31567;54.600;9.842;2023-08-30T08:03:58;19.30;97.70
45849;DHT22;31567;54.600;9.842;2023-08-30T08:07:38;19.50;97.70
45849;DHT22;31567;54.600;9.842;2023-08-30T08:11:19;19.60;97.30
45849;DHT22;31567;54.600;9.842;2023-08-30T08:14:58;19.70;97.10
45849;DHT22;31567;54.600;9.842;2023-08-30T08:18:38;19.80;97.10
45849;DHT22;31567;54.600;9.842;2023-08-30T08:22:17;19.90;96.90
45849;DHT22;31567;54.600;9.842;2023-08-30T08:25:58;20.00;96.90
45849;DHT22;31567;54.600;9.842;2023-08-30T08:29:38;20.20;97.00
45849;DHT22;31567;54.600;9.842;2023-08-30T08:33:18;20.30;96.40
45849;DHT22;31567;54.600;9.842;2023-08-30T08:36:57;20.40;96.10
45849;DHT22;31567;54.600;9.842;2023-08-30T08:40:37;20.50;96.40
45849;DHT22;31567;54.600;9.842;2023-08-30T08:44:18;20.60;95.70
45849;DHT22;31567;54.600;9.842;2023-08-30T08:47:59;20.60;95.60
45849;DHT22;31567;54.600;9.842;2023-08-30T08:51:39;20.70;95.30
45849;DHT22;31567;54.600;9.842;2023-08-30T08:55:19;20.80;95.20
45849;DHT22;31567;54.600;9.842;2023-08-30T08:58:59;20.80;95.00
45849;DHT22;31567;54.600;9.842;2023-08-30T09:02:39;20.90;95.10
45849;DHT22;31567;54.600;9.842;2023-08-30T09:06:21;21.00;95.20
45849;DHT22;31567;54.600;9.842;2023-08-30T09:10:00;21.20;95.00
45849;DHT22;31567;54.600;9.842;2023-08-30T09:13:42;21.30;94.80
45849;DHT22;31567;54.600;9.842;2023-08-30T09:17:22;21.50;94.70
45849;DHT22;31567;54.600;9.842;2023-08-30T09:21:09;21.70;94.30
45849;DHT22;31567;54.600;9.842;2023-08-30T09:24:49;21.70;93.70
45849;DHT22;31567;54.600;9.842;2023-08-30T09:28:29;21.70;93.60
45849;DHT22;31567;54.600;9.842;2023-08-30T09:32:09;21.70;93.40
45849;DHT22;31567;54.600;9.842;2023-08-30T09:35:48;21.60;93.70
45849;DHT22;31567;54.600;9.842;2023-08-30T09:39:28;21.70;93.70
45849;DHT22;31567;54.600;9.842;2023-08-30T09:43:08;21.70;92.90
45849;DHT22;31567;54.600;9.842;2023-08-30T09:46:52;21.70;93.00
45849;DHT22;31567;54.600;9.842;2023-08-30T09:50:34;21.80;93.10
45849;DHT22;31567;54.600;9.842;2023-08-30T09:57:54;22.20;93.00
45849;DHT22;31567;54.600;9.842;2023-08-30T10:01:34;22.30;92.90
45849;DHT22;31567;54.600;9.842;2023-08-30T10:05:15;22.40;92.50
45849;DHT22;31567;54.600;9.842;2023-08-30T10:08:56;22.50;92.30
45849;DHT22;31567;54.600;9.842;2023-08-30T10:12:36;22.50;92.30
45849;DHT22;31567;54.600;9.842;2023-08-30T10:16:19;22.30;91.10
45849;DHT22;31567;54.600;9.842;2023-08-30T10:20:05;22.00;91.30
45849;DHT22;31567;54.600;9.842;2023-08-30T10:23:49;22.00;91.10
45849;DHT22;31567;54.600;9.842;2023-08-30T10:27:31;21.80;90.80
45849;DHT22;31567;54.600;9.842;2023-08-30T10:31:13;21.60;90.80
45849;DHT22;31567;54.600;9.842;2023-08-30T10:34:53;21.50;90.90
45849;DHT22;31567;54.600;9.842;2023-08-30T10:38:33;21.40;91.30
45849;DHT22;31567;54.600;9.842;2023-08-30T10:42:14;21.50;91.20
45849;DHT22;31567;54.600;9.842;2023-08-30T10:46:05;21.40;90.90
45849;DHT22;31567;54.600;9.842;2023-08-30T10:49:50;21.40;90.80
45849;DHT22;31567;54.600;9.842;2023-08-30T10:53:32;21.30;90.50
45849;DHT22;31567;54.600;9.842;2023-08-30T10:57:14;21.50;91.30
45849;DHT22;31567;54.600;9.842;2023-08-30T11:00:54;21.60;91.60
45849;DHT22;31567;54.600;9.842;2023-08-30T11:04:39;21.80;90.30
45849;DHT22;31567;54.600;9.842;2023-08-30T11:08:21;21.80;90.20
45849;DHT22;31567;54.600;9.842;2023-08-30T11:12:04;22.10;90.40
45849;DHT22;31567;54.600;9.842;2023-08-30T11:15:44;22.20;90.00
45849;DHT22;31567;54.600;9.842;2023-08-30T11:19:24;22.40;89.70
45849;DHT22;31567;54.600;9.842;2023-08-30T11:23:08;22.40;89.70
45849;DHT22;31567;54.600;9.842;2023-08-30T11:26:53;22.70;88.70
45849;DHT22;31567;54.600;9.842;2023-08-30T11:30:32;23.00;89.20
45849;DHT22;31567;54.600;9.842;2023-08-30T11:34:12;23.10;86.30
45849;DHT22;31567;54.600;9.842;2023-08-30T11:37:52;23.20;86.60
45849;DHT22;31567;54.600;9.842;2023-08-30T11:41:31;23.30;87.00
45849;DHT22;31567;54.600;9.842;2023-08-30T11:45:13;23.30;84.90
45849;DHT22;31567;54.600;9.842;2023-08-30T11:48:54;23.20;84.00
45849;DHT22;31567;54.600;9.842;2023-08-30T11:52:34;23.10;85.30
45849;DHT22;31567;54.600;9.842;2023-08-30T11:56:16;22.90;85.10
45849;DHT22;31567;54.600;9.842;2023-08-30T12:00:09;22.80;86.40
45849;DHT22;31567;54.600;9.842;2023-08-30T12:03:49;22.80;86.20
45849;DHT22;31567;54.600;9.842;2023-08-30T12:07:29;22.60;85.70
45849;DHT22;31567;54.600;9.842;2023-08-30T12:11:18;22.20;86.00
45849;DHT22;31567;54.600;9.842;2023-08-30T12:14:58;22.00;85.80
45849;DHT22;31567;54.600;9.842;2023-08-30T12:18:38;21.70;86.10
45849;DHT22;31567;54.600;9.842;2023-08-30T12:22:17;21.50;87.10
45849;DHT22;31567;54.600;9.842;2023-08-30T12:26:01;21.40;86.60
45849;DHT22;31567;54.600;9.842;2023-08-30T12:29:40;21.30;86.60
45849;DHT22;31567;54.600;9.842;2023-08-30T12:33:20;21.50;87.50
45849;DHT22;31567;54.600;9.842;2023-08-30T12:37:00;21.70;87.60
45849;DHT22;31567;54.600;9.842;2023-08-30T12:40:41;21.90;86.90
45849;DHT22;31567;54.600;9.842;2023-08-30T12:44:21;22.00;85.70
45849;DHT22;31567;54.600;9.842;2023-08-30T12:48:00;22.20;85.40
45849;DHT22;31567;54.600;9.842;2023-08-30T12:51:40;22.30;86.40
45849;DHT22;31567;54.600;9.842;2023-08-30T12:55:19;22.50;84.20
45849;DHT22;31567;54.600;9.842;2023-08-30T12:58:59;22.50;81.90
45849;DHT22;31567;54.600;9.842;2023-08-30T13:02:38;22.40;82.10
45849;DHT22;31567;54.600;9.842;2023-08-30T13:06:18;22.70;82.40
45849;DHT22;31567;54.600;9.842;2023-08-30T13:09:57;22.90;81.40
45849;DHT22;31567;54.600;9.842;2023-08-30T13:13:37;23.20;82.40
45849;DHT22;31567;54.600;9.842;2023-08-30T13:17:16;23.30;82.20
45849;DHT22;31567;54.600;9.842;2023-08-30T13:20:56;23.10;82.00
45849;DHT22;31567;54.600;9.842;2023-08-30T13:24:36;23.30;82.30
45849;DHT22;31567;54.600;9.842;2023-08-30T13:28:16;23.40;80.30
45849;DHT22;31567;54.600;9.842;2023-08-30T13:31:55;23.40;79.50
45849;DHT22;31567;54.600;9.842;2023-08-30T13:35:35;23.30;79.60
45849;DHT22;31567;54.600;9.842;2023-08-30T13:39:14;23.30;79.60
45849;DHT22;31567;54.600;9.842;2023-08-30T13:42:54;23.20;79.90
45849;DHT22;31567;54.600;9.842;2023-08-30T13:46:33;23.10;80.80
45849;DHT22;31567;54.600;9.842;2023-08-30T13:50:13;23.10;80.10
45849;DHT22;31567;54.600;9.842;2023-08-30T13:53:53;23.10;79.20
45849;DHT22;31567;54.600;9.842;2023-08-30T13:57:32;23.10;79.20
45849;DHT22;31567;54.600;9.842;2023-08-30T14:01:12;23.40;78.50
45849;DHT22;31567;54.600;9.842;2023-08-30T14:04:51;23.40;78.40
45849;DHT22;31567;54.600;9.842;2023-08-30T14:08:31;23.60;78.00
45849;DHT22;31567;54.600;9.842;2023-08-30T14:12:11;23.70;77.00
45849;DHT22;31567;54.600;9.842;2023-08-30T14:15:50;23.80;76.10
45849;DHT22;31567;54.600;9.842;2023-08-30T14:19:30;23.80;75.50
45849;DHT22;31567;54.600;9.842;2023-08-30T14:23:10;23.60;75.60
45849;DHT22;31567;54.600;9.842;2023-08-30T14:26:50;23.50;75.60
45849;DHT22;31567;54.600;9.842;2023-08-30T14:30:30;23.20;76.40
45849;DHT22;31567;54.600;9.842;2023-08-30T14:34:09;23.00;76.30
45849;DHT22;31567;54.600;9.842;2023-08-30T14:37:49;22.90;76.60
45849;DHT22;31567;54.600;9.842;2023-08-30T14:41:28;22.80;77.00
45849;DHT22;31567;54.600;9.842;2023-08-30T14:45:08;22.90;78.30
45849;DHT22;31567;54.600;9.842;2023-08-30T14:48:48;23.00;78.30
45849;DHT22;31567;54.600;9.842;2023-08-30T14:52:30;23.10;77.50
45849;DHT22;31567;54.600;9.842;2023-08-30T14:56:10;23.20;76.80
45849;DHT22;31567;54.600;9.842;2023-08-30T14:59:51;23.20;76.80
45849;DHT22;31567;54.600;9.842;2023-08-30T15:03:30;23.10;77.10
45849;DHT22;31567;54.600;9.842;2023-08-30T15:07:10;23.00;77.10
45849;DHT22;31567;54.600;9.842;2023-08-30T15:10:49;23.00;77.00
45849;DHT22;31567;54.600;9.842;2023-08-30T15:14:32;22.90;76.90
45849;DHT22;31567;54.600;9.842;2023-08-30T15:18:11;22.80;77.40
45849;DHT22;31567;54.600;9.842;2023-08-30T15:21:51;22.70;77.80
45849;DHT22;31567;54.600;9.842;2023-08-30T15:25:31;22.70;77.60
45849;DHT22;31567;54.600;9.842;2023-08-30T15:29:10;22.60;77.60
45849;DHT22;31567;54.600;9.842;2023-08-30T15:32:50;22.50;78.00
45849;DHT22;31567;54.600;9.842;2023-08-30T15:36:30;22.50;78.20
45849;DHT22;31567;54.600;9.842;2023-08-30T15:40:10;22.50;78.60
45849;DHT22;31567;54.600;9.842;2023-08-30T15:43:49;22.40;78.20
45849;DHT22;31567;54.600;9.842;2023-08-30T15:47:29;22.40;80.20
45849;DHT22;31567;54.600;9.842;2023-08-30T15:51:08;22.40;81.20
45849;DHT22;31567;54.600;9.842;2023-08-30T15:54:48;22.40;80.70
45849;DHT22;31567;54.600;9.842;2023-08-30T15:58:28;22.40;84.40
45849;DHT22;31567;54.600;9.842;2023-08-30T16:02:07;22.40;85.60
45849;DHT22;31567;54.600;9.842;2023-08-30T16:05:47;22.40;86.80
45849;DHT22;31567;54.600;9.842;2023-08-30T16:09:26;22.40;87.70
45849;DHT22;31567;54.600;9.842;2023-08-30T16:13:06;22.40;88.20
45849;DHT22;31567;54.600;9.842;2023-08-30T16:16:45;22.30;85.90
45849;DHT22;31567;54.600;9.842;2023-08-30T16:20:25;22.20;86.30
45849;DHT22;31567;54.600;9.842;2023-08-30T16:24:05;22.10;87.50
45849;DHT22;31567;54.600;9.842;2023-08-30T16:27:44;22.10;88.10
45849;DHT22;31567;54.600;9.842;2023-08-30T16:31:33;21.90;88.40
45849;DHT22;31567;54.600;9.842;2023-08-30T16:35:14;21.90;89.20
45849;DHT22;31567;54.600;9.842;2023-08-30T16:38:53;21.80;90.20
45849;DHT22;31567;54.600;9.842;2023-08-30T16:42:33;21.80;90.30
45849;DHT22;31567;54.600;9.842;2023-08-30T16:46:12;21.70;90.70
45849;DHT22;31567;54.600;9.842;2023-08-30T16:49:52;21.70;90.30
45849;DHT22;31567;54.600;9.842;2023-08-30T16:53:34;21.50;90.60
45849;DHT22;31567;54.600;9.842;2023-08-30T16:57:13;21.40;91.20
45849;DHT22;31567;54.600;9.842;2023-08-30T17:00:53;21.30;90.90
45849;DHT22;31567;54.600;9.842;2023-08-30T17:04:32;21.30;90.40
45849;DHT22;31567;54.600;9.842;2023-08-30T17:08:12;21.30;90.20
45849;DHT22;31567;54.600;9.842;2023-08-30T17:11:52;21.10;89.90
45849;DHT22;31567;54.600;9.842;2023-08-30T17:15:31;21.10;90.50
45849;DHT22;31567;54.600;9.842;2023-08-30T17:19:11;21.00;91.30
45849;DHT22;31567;54.600;9.842;2023-08-30T17:22:51;21.00;91.00
45849;DHT22;31567;54.600;9.842;2023-08-30T17:26:31;20.90;90.90
45849;DHT22;31567;54.600;9.842;2023-08-30T17:30:11;20.90;90.90
45849;DHT22;31567;54.600;9.842;2023-08-30T17:33:53;20.80;90.90
45849;DHT22;31567;54.600;9.842;2023-08-30T17:37:32;20.80;90.90
45849;DHT22;31567;54.600;9.842;2023-08-30T17:41:12;20.70;91.00
45849;DHT22;31567;54.600;9.842;2023-08-30T17:44:52;20.70;91.30
45849;DHT22;31567;54.600;9.842;2023-08-30T17:48:32;20.60;91.40
45849;DHT22;31567;54.600;9.842;2023-08-30T17:52:12;20.60;91.70
45849;DHT22;31567;54.600;9.842;2023-08-30T17:55:56;20.50;92.00
45849;DHT22;31567;54.600;9.842;2023-08-30T17:59:35;20.50;92.30
45849;DHT22;31567;54.600;9.842;2023-08-30T18:03:15;20.30;92.30
45849;DHT22;31567;54.600;9.842;2023-08-30T18:06:55;20.30;92.50
45849;DHT22;31567;54.600;9.842;2023-08-30T18:10:36;20.20;92.70
45849;DHT22;31567;54.600;9.842;2023-08-30T18:14:15;20.10;92.80
45849;DHT22;31567;54.600;9.842;2023-08-30T18:17:55;20.10;93.10
45849;DHT22;31567;54.600;9.842;2023-08-30T18:21:34;20.10;93.30
45849;DHT22;31567;54.600;9.842;2023-08-30T18:25:14;20.00;93.50
45849;DHT22;31567;54.600;9.842;2023-08-30T18:28:53;19.90;93.80
45849;DHT22;31567;54.600;9.842;2023-08-30T18:32:34;20.00;93.90
45849;DHT22;31567;54.600;9.842;2023-08-30T18:36:14;19.90;94.00
45849;DHT22;31567;54.600;9.842;2023-08-30T18:39:53;19.80;94.20
45849;DHT22;31567;54.600;9.842;2023-08-30T18:43:33;19.80;94.50
45849;DHT22;31567;54.600;9.842;2023-08-30T18:47:13;19.80;94.70
45849;DHT22;31567;54.600;9.842;2023-08-30T18:50:56;19.80;94.70
45849;DHT22;31567;54.600;9.842;2023-08-30T18:54:36;19.80;94.50
45849;DHT22;31567;54.600;9.842;2023-08-30T18:58:18;19.70;94.40
45849;DHT22;31567;54.600;9.842;2023-08-30T19:01:58;19.70;94.50
45849;DHT22;31567;54.600;9.842;2023-08-30T19:05:37;19.60;94.70
45849;DHT22;31567;54.600;9.842;2023-08-30T19:09:18;19.60;94.80
45849;DHT22;31567;54.600;9.842;2023-08-30T19:12:58;19.60;95.10
45849;DHT22;31567;54.600;9.842;2023-08-30T19:16:37;19.60;95.10
45849;DHT22;31567;54.600;9.842;2023-08-30T19:20:17;19.60;95.00
45849;DHT22;31567;54.600;9.842;2023-08-30T19:23:57;19.50;95.00
45849;DHT22;31567;54.600;9.842;2023-08-30T19:27:36;19.60;94.70
45849;DHT22;31567;54.600;9.842;2023-08-30T19:31:16;19.60;94.80
45849;DHT22;31567;54.600;9.842;2023-08-30T19:34:55;19.60;94.80
45849;DHT22;31567;54.600;9.842;2023-08-30T19:38:35;19.60;94.80
45849;DHT22;31567;54.600;9.842;2023-08-30T19:42:14;19.70;94.90
45849;DHT22;31567;54.600;9.842;2023-08-30T19:46:03;19.60;94.90
45849;DHT22;31567;54.600;9.842;2023-08-30T19:49:43;19.50;94.90
45849;DHT22;31567;54.600;9.842;2023-08-30T19:53:23;19.50;95.00
45849;DHT22;31567;54.600;9.842;2023-08-30T19:57:03;19.50;94.90
45849;DHT22;31567;54.600;9.842;2023-08-30T20:00:43;19.40;94.90
45849;DHT22;31567;54.600;9.842;2023-08-30T20:04:22;19.40;95.00
45849;DHT22;31567;54.600;9.842;2023-08-30T20:08:04;19.40;95.20
45849;DHT22;31567;54.600;9.842;2023-08-30T20:11:43;19.40;95.30
45849;DHT22;31567;54.600;9.842;2023-08-30T20:15:23;19.30;95.40
45849;DHT22;31567;54.600;9.842;2023-08-30T20:19:07;19.30;95.50
45849;DHT22;31567;54.600;9.842;2023-08-30T20:22:46;19.30;95.50
45849;DHT22;31567;54.600;9.842;2023-08-30T20:26:26;19.30;95.40
45849;DHT22;31567;54.600;9.842;2023-08-30T20:30:06;19.30;95.50
45849;DHT22;31567;54.600;9.842;2023-08-30T20:33:45;19.30;95.50
45849;DHT22;31567;54.600;9.842;2023-08-30T20:37:27;19.30;95.50
45849;DHT22;31567;54.600;9.842;2023-08-30T20:41:07;19.10;95.50
45849;DHT22;31567;54.600;9.842;2023-08-30T20:44:47;19.10;95.60
45849;DHT22;31567;54.600;9.842;2023-08-30T20:48:26;19.00;95.70
45849;DHT22;31567;54.600;9.842;2023-08-30T20:52:06;19.00;95.90
45849;DHT22;31567;54.600;9.842;2023-08-30T20:55:46;19.00;96.00
45849;DHT22;31567;54.600;9.842;2023-08-30T20:59:26;18.90;96.10
45849;DHT22;31567;54.600;9.842;2023-08-30T21:03:06;19.00;96.30
45849;DHT22;31567;54.600;9.842;2023-08-30T21:06:45;18.90;96.40
45849;DHT22;31567;54.600;9.842;2023-08-30T21:10:25;18.80;96.50
45849;DHT22;31567;54.600;9.842;2023-08-30T21:14:04;18.80;96.70
45849;DHT22;31567;54.600;9.842;2023-08-30T21:17:44;18.70;96.90
45849;DHT22;31567;54.600;9.842;2023-08-30T21:21:23;18.70;97.00
45849;DHT22;31567;54.600;9.842;2023-08-30T21:25:03;18.70;97.00
45849;DHT22;31567;54.600;9.842;2023-08-30T21:28:45;18.60;97.10
45849;DHT22;31567;54.600;9.842;2023-08-30T21:32:26;18.60;97.20
45849;DHT22;31567;54.600;9.842;2023-08-30T21:36:10;18.50;97.20
45849;DHT22;31567;54.600;9.842;2023-08-30T21:39:50;18.50;97.40
45849;DHT22;31567;54.600;9.842;2023-08-30T21:43:29;18.40;97.50
45849;DHT22;31567;54.600;9.842;2023-08-30T21:47:09;18.40;97.60
45849;DHT22;31567;54.600;9.842;2023-08-30T21:50:49;18.40;97.80
45849;DHT22;31567;54.600;9.842;2023-08-30T21:54:29;18.30;97.80
45849;DHT22;31567;54.600;9.842;2023-08-30T21:58:09;18.20;97.90
45849;DHT22;31567;54.600;9.842;2023-08-30T22:01:48;18.20;97.90
45849;DHT22;31567;54.600;9.842;2023-08-30T22:05:28;18.20;98.10
45849;DHT22;31567;54.600;9.842;2023-08-30T22:09:07;18.20;98.20
45849;DHT22;31567;54.600;9.842;2023-08-30T22:12:47;18.20;98.30
45849;DHT22;31567;54.600;9.842;2023-08-30T22:16:27;18.20;98.40
45849;DHT22;31567;54.600;9.842;2023-08-30T22:20:08;18.20;98.50
45849;DHT22;31567;54.600;9.842;2023-08-30T22:23:48;18.30;98.70
45849;DHT22;31567;54.600;9.842;2023-08-30T22:27:27;18.30;98.80
45849;DHT22;31567;54.600;9.842;2023-08-30T22:31:07;18.30;99.00
45849;DHT22;31567;54.600;9.842;2023-08-30T22:34:46;18.20;99.00
45849;DHT22;31567;54.600;9.842;2023-08-30T22:38:26;18.10;99.10
45849;DHT22;31567;54.600;9.842;2023-08-30T22:42:06;18.10;99.60
45849;DHT22;31567;54.600;9.842;2023-08-30T22:45:45;18.10;99.50
45849;DHT22;31567;54.600;9.842;2023-08-30T22:49:25;18.10;99.60
45849;DHT22;31567;54.600;9.842;2023-08-30T22:53:05;18.10;99.70
45849;DHT22;31567;54.600;9.842;2023-08-30T22:56:45;18.00;99.90
45849;DHT22;31567;54.600;9.842;2023-08-30T23:00:26;18.00;99.90
45849;DHT22;31567;54.600;9.842;2023-08-30T23:04:06;18.00;99.90
45849;DHT22;31567;54.600;9.842;2023-08-30T23:07:47;18.00;99.90
45849;DHT22;31567;54.600;9.842;2023-08-30T23:11:26;18.00;99.90
45849;DHT22;31567;54.600;9.842;2023-08-30T23:15:06;17.90;99.90